Time;durP1;ratioP1;P1;durP2;ratioP2;P2;SDS_P1;SDS_P2;PMS_P1;PMS_P2;Temp;Humidity;BMP_temperature;BMP_pressure;BME280_temperature;BME280_humidity;BME280_pressure;Samples;Min_cycle;Max_cycle;Signal;HPM_P1;HPM_P2
2024/01/04 00:00:16;;;;;;;3.17;1.85;;;;;;;8.54;52.79;97516.41;5107197;28;20044;-70
2024/01/04 00:02:43;;;;;;;3.28;1.98;;;;;;;8.57;52.64;97510.91;5107162;28;20040;-70
2024/01/04 00:05:10;;;;;;;3.63;2.10;;;;;;;8.59;52.67;97505.50;5107398;28;20048;-70
2024/01/04 00:07:38;;;;;;;2.58;1.65;;;;;;;8.26;52.24;97441.13;5106801;28;20036;-70
2024/01/04 00:10:06;;;;;;;2.55;1.77;;;;;;;8.72;51.81;97508.88;5107010;28;20040;-70
2024/01/04 00:12:34;;;;;;;3.05;1.60;;;;;;;8.76;51.33;97498.94;5106830;28;20051;-70
2024/01/04 00:15:03;;;;;;;3.05;1.83;;;;;;;8.82;51.05;97495.81;5106619;28;20089;-71
2024/01/04 00:17:30;;;;;;;3.35;1.70;;;;;;;8.89;50.84;97486.44;5106840;28;20040;-70
2024/01/04 00:19:56;;;;;;;2.65;1.80;;;;;;;8.90;50.98;97480.22;5106817;28;20052;-70
2024/01/04 00:22:23;;;;;;;3.10;1.50;;;;;;;8.92;50.92;97486.22;5106851;28;20059;-70
2024/01/04 00:24:50;;;;;;;2.47;1.55;;;;;;;8.95;50.56;97470.97;5107041;28;20345;-70
2024/01/04 00:27:17;;;;;;;2.90;1.55;;;;;;;8.96;50.84;97474.44;5106694;28;20051;-70
2024/01/04 00:29:45;;;;;;;2.15;1.48;;;;;;;8.96;50.82;97487.66;5106666;28;20035;-70
2024/01/04 00:32:12;;;;;;;3.25;1.70;;;;;;;8.41;50.35;97401.31;5106409;28;20044;-70
2024/01/04 00:34:38;;;;;;;2.63;1.55;;;;;;;9.00;50.35;97492.59;5106308;28;20085;-70
2024/01/04 00:37:05;;;;;;;2.30;1.45;;;;;;;9.03;49.95;97472.16;5106549;28;20040;-70
2024/01/04 00:39:32;;;;;;;2.65;1.80;;;;;;;9.09;49.75;97477.81;5106482;28;20044;-70
2024/01/04 00:41:59;;;;;;;2.42;1.50;;;;;;;8.05;50.00;97292.38;5106721;28;20047;-70
2024/01/04 00:44:25;;;;;;;2.10;1.42;;;;;;;9.15;49.45;97457.97;5106146;28;20047;-70
2024/01/04 00:46:53;;;;;;;3.38;1.40;;;;;;;9.06;49.26;97432.28;5105462;28;20043;-70
2024/01/04 00:49:20;;;;;;;4.22;1.70;;;;;;;9.23;49.44;97472.31;5106062;28;20300;-71
2024/01/04 00:51:47;;;;;;;2.28;1.40;;;;;;;9.25;49.55;97470.38;5106034;28;20040;-70
2024/01/04 00:54:13;;;;;;;3.15;1.73;;;;;;;9.28;49.32;97456.06;5106224;28;20081;-70
2024/01/04 00:56:40;;;;;;;2.53;1.45;;;;;;;9.09;49.80;97429.41;5089082;28;20277;-70
2024/01/04 00:59:07;;;;;;;2.97;1.33;;;;;;;9.26;49.25;97452.72;5106187;28;20044;-71
2024/01/04 01:01:33;;;;;;;2.00;1.30;;;;;;;9.15;49.28;97427.09;5105858;28;20186;-70
2024/01/04 01:04:02;;;;;;;2.58;1.30;;;;;;;9.33;49.53;97482.97;5106400;28;20067;-71
2024/01/04 01:06:29;;;;;;;2.08;1.45;;;;;;;9.06;49.30;97411.97;5106092;28;20044;-70
2024/01/04 01:08:56;;;;;;;2.10;1.25;;;;;;;9.44;49.53;97442.50;5106114;28;20039;-70
2024/01/04 01:11:22;;;;;;;2.50;1.40;;;;;;;9.48;49.52;97452.69;5106041;28;20052;-70
2024/01/04 01:13:49;;;;;;;2.13;1.33;;;;;;;9.53;49.74;97449.69;5105658;28;20043;-70
2024/01/04 01:16:16;;;;;;;1.75;1.20;;;;;;;9.53;49.61;97461.09;5106270;28;20043;-71
2024/01/04 01:18:42;;;;;;;2.17;1.30;;;;;;;9.54;49.75;97424.91;5105684;28;20044;-70
2024/01/04 01:21:10;;;;;;;2.13;1.20;;;;;;;9.60;49.69;97448.22;5105924;28;20098;-71
2024/01/04 01:23:37;;;;;;;1.65;1.10;;;;;;;9.62;49.80;97441.00;5087937;28;20036;-71
2024/01/04 01:26:04;;;;;;;1.60;1.20;;;;;;;9.68;49.80;97453.72;5088675;28;20040;-70
2024/01/04 01:28:30;;;;;;;2.13;1.38;;;;;;;9.68;49.76;97439.66;5105741;28;20055;-71
2024/01/04 01:30:57;;;;;;;2.05;1.35;;;;;;;9.69;49.70;97458.06;5105865;28;20066;-71
2024/01/04 01:33:24;;;;;;;1.90;1.20;;;;;;;9.64;49.86;97428.50;5105678;28;20044;-71
2024/01/04 01:35:51;;;;;;;1.50;1.17;;;;;;;9.75;49.97;97417.88;5105743;28;20040;-71
2024/01/04 01:38:19;;;;;;;2.17;1.10;;;;;;;9.73;49.87;97422.44;5105480;28;20082;-71
2024/01/04 01:40:46;;;;;;;1.50;1.20;;;;;;;9.72;49.77;97427.88;5105731;28;20071;-71
2024/01/04 01:43:13;;;;;;;1.65;1.25;;;;;;;9.75;49.89;97417.03;5088362;28;20040;-70
2024/01/04 01:45:39;;;;;;;4.13;1.75;;;;;;;9.44;49.62;97349.97;5105660;28;20044;-71
2024/01/04 01:48:07;;;;;;;2.80;1.35;;;;;;;9.74;49.61;97413.56;5087689;28;20097;-71
2024/01/04 01:50:35;;;;;;;1.77;1.15;;;;;;;9.76;49.63;97424.84;5105200;28;20113;-70
2024/01/04 01:53:02;;;;;;;1.92;1.38;;;;;;;9.75;49.78;97415.22;5105628;28;20085;-71
2024/01/04 01:55:31;;;;;;;1.60;1.10;;;;;;;8.72;49.74;97220.19;5105553;28;20089;-71
2024/01/04 01:57:58;;;;;;;2.13;1.20;;;;;;;9.16;49.78;97319.59;5108699;28;20039;-70
2024/01/04 02:00:25;;;;;;;2.15;1.20;;;;;;;9.78;49.73;97430.84;5109590;28;20085;-70
2024/01/04 02:02:52;;;;;;;3.13;1.40;;;;;;;9.77;49.81;97431.81;5109236;28;20044;-70
2024/01/04 02:05:18;;;;;;;1.85;1.10;;;;;;;9.81;49.87;97403.31;5109193;28;20062;-70
2024/01/04 02:07:45;;;;;;;1.90;1.30;;;;;;;9.73;49.88;97418.97;5109409;28;20296;-70
2024/01/04 02:10:12;;;;;;;1.98;1.20;;;;;;;9.78;49.98;97412.34;5109370;28;20196;-70
2024/01/04 02:12:41;;;;;;;1.92;1.17;;;;;;;6.54;50.11;96919.38;5109327;28;20157;-70
2024/01/04 02:15:08;;;;;;;2.85;1.20;;;;;;;9.55;49.84;97382.50;5109013;28;20085;-70
2024/01/04 02:17:35;;;;;;;2.00;1.13;;;;;;;9.61;49.95;97411.06;5091247;28;20212;-70
2024/01/04 02:20:02;;;;;;;1.55;1.20;;;;;;;9.75;49.84;97448.78;5108979;28;20039;-70
2024/01/04 02:22:30;;;;;;;1.40;1.10;;;;;;;9.78;49.67;97412.34;5108826;28;20204;-70
2024/01/04 02:24:58;;;;;;;2.30;1.20;;;;;;;9.24;49.67;97343.63;5109111;28;20055;-70
2024/01/04 02:27:25;;;;;;;1.33;1.10;;;;;;;9.12;49.86;97376.31;5108923;28;20040;-70
2024/01/04 02:29:51;;;;;;;2.28;1.60;;;;;;;9.76;50.06;97437.22;5109002;28;20061;-69
2024/01/04 02:32:18;;;;;;;2.63;1.10;;;;;;;9.74;49.94;97405.63;5108848;28;20105;-71
2024/01/04 02:34:44;;;;;;;2.28;1.30;;;;;;;9.78;49.95;97414.13;5108826;28;20040;-70
2024/01/04 02:37:11;;;;;;;2.17;1.10;;;;;;;9.76;50.13;97453.94;5108621;28;20094;-70
2024/01/04 02:39:38;;;;;;;1.70;1.10;;;;;;;9.81;49.97;97435.88;5108841;28;20097;-71
2024/01/04 02:42:06;;;;;;;1.65;1.13;;;;;;;9.81;49.86;97427.13;5108495;28;20239;-70
2024/01/04 02:44:33;;;;;;;1.52;1.13;;;;;;;9.79;50.19;97421.94;5108976;28;20086;-70
2024/01/04 02:46:59;;;;;;;1.20;1.10;;;;;;;9.63;50.35;97425.00;5108681;28;20093;-70
2024/01/04 02:49:26;;;;;;;1.65;1.20;;;;;;;9.69;50.37;97446.63;5108344;28;20048;-70
2024/01/04 02:51:53;;;;;;;1.70;1.00;;;;;;;9.77;50.55;97455.63;5108624;28;20044;-70
2024/01/04 02:54:19;;;;;;;1.48;1.10;;;;;;;9.77;50.87;97446.84;5108484;28;20048;-70
2024/01/04 02:56:46;;;;;;;1.30;1.10;;;;;;;9.75;50.96;97452.25;5090522;28;20099;-70
2024/01/04 02:59:14;;;;;;;1.42;1.13;;;;;;;9.72;51.33;97427.88;5109045;28;20211;-71
2024/01/04 03:01:43;;;;;;;2.30;1.35;;;;;;;9.68;51.54;97451.09;5108419;28;20094;-71
2024/01/04 03:04:10;;;;;;;1.40;1.20;;;;;;;9.71;51.55;97442.06;5108344;28;20048;-70
2024/01/04 03:06:37;;;;;;;1.48;1.10;;;;;;;9.70;51.67;97435.94;5108573;28;20086;-70
2024/01/04 03:09:04;;;;;;;1.10;1.00;;;;;;;9.63;52.10;97462.03;5107174;28;20063;-70
2024/01/04 03:11:30;;;;;;;1.40;1.15;;;;;;;9.64;52.04;97481.41;5107907;28;20312;-69
2024/01/04 03:13:57;;;;;;;1.10;1.00;;;;;;;9.60;52.15;97464.94;5108113;28;20107;-70
2024/01/04 03:16:25;;;;;;;1.17;1.00;;;;;;;9.59;52.17;97459.78;5108123;28;20052;-71
2024/01/04 03:18:51;;;;;;;2.05;1.20;;;;;;;9.61;52.19;97468.41;5108106;28;20051;-71
2024/01/04 03:21:18;;;;;;;1.40;1.08;;;;;;;9.55;52.30;97479.50;5108004;28;20144;-70
2024/01/04 03:23:45;;;;;;;1.42;1.10;;;;;;;9.53;52.38;97474.31;5108000;28;20070;-70
2024/01/04 03:26:13;;;;;;;1.48;1.10;;;;;;;9.50;52.40;97471.09;5107925;28;20066;-70
2024/01/04 03:28:39;;;;;;;1.98;1.10;;;;;;;9.50;52.44;97489.59;5107842;28;20051;-71
2024/01/04 03:31:06;;;;;;;1.77;1.10;;;;;;;9.48;52.53;97489.72;5107579;28;20074;-70
2024/01/04 03:33:34;;;;;;;1.88;1.10;;;;;;;9.45;52.65;97471.47;5108076;28;20054;-70
2024/01/04 03:36:01;;;;;;;2.15;1.73;;;;;;;9.46;52.64;97490.81;5107923;28;20044;-71
2024/01/04 03:38:27;;;;;;;2.58;1.30;;;;;;;9.46;52.71;97451.16;5107654;28;20051;-70
2024/01/04 03:40:54;;;;;;;1.75;1.20;;;;;;;9.43;52.90;97461.97;5107663;28;20051;-70
2024/01/04 03:43:20;;;;;;;1.35;1.10;;;;;;;9.39;52.97;97464.00;5107578;28;20044;-70
2024/01/04 03:45:47;;;;;;;6.03;1.25;;;;;;;9.37;53.07;97470.34;5107279;28;20106;-70
2024/01/04 03:48:14;;;;;;;1.65;1.10;;;;;;;9.38;53.06;97477.34;5107748;28;20109;-70
2024/01/04 03:50:42;;;;;;;2.78;1.10;;;;;;;9.32;53.26;97465.44;5106945;28;20059;-70
2024/01/04 03:53:08;;;;;;;1.33;1.05;;;;;;;9.14;53.21;97436.00;5107345;28;20044;-70
2024/01/04 03:55:35;;;;;;;1.52;1.08;;;;;;;9.13;53.22;97444.88;5107255;28;20044;-71
2024/01/04 03:58:01;;;;;;;1.55;1.10;;;;;;;9.29;53.29;97466.53;5107334;28;20050;-70
2024/01/04 04:00:28;;;;;;;2.10;1.02;;;;;;;9.28;53.35;97448.16;5106955;28;20304;-70
2024/01/04 04:02:55;;;;;;;2.55;1.48;;;;;;;9.27;53.42;97452.59;5106974;28;20067;-70
2024/01/04 04:05:22;;;;;;;1.58;1.10;;;;;;;9.26;53.47;97440.34;5089359;28;20200;-70
2024/01/04 04:07:50;;;;;;;1.52;1.20;;;;;;;9.24;53.52;97428.22;5107117;28;20063;-70
2024/01/04 04:10:16;;;;;;;1.88;1.20;;;;;;;9.20;53.34;97440.81;5106757;28;20043;-70
2024/01/04 04:12:43;;;;;;;1.50;1.10;;;;;;;9.17;53.56;97427.81;5106978;28;20109;-70
2024/01/04 04:15:10;;;;;;;2.03;1.40;;;;;;;9.20;53.54;97445.28;5106541;28;20310;-70
2024/01/04 04:17:36;;;;;;;1.30;1.13;;;;;;;9.21;53.40;97425.81;5106638;28;20358;-70
2024/01/04 04:20:04;;;;;;;1.65;1.30;;;;;;;9.19;53.56;97435.63;5106421;28;20073;-70
2024/01/04 04:22:31;;;;;;;1.55;1.15;;;;;;;9.18;53.54;97433.94;5107162;28;20111;-70
2024/01/04 04:24:59;;;;;;;5.10;1.58;;;;;;;9.14;53.63;97432.50;5107350;28;20036;-70
2024/01/04 04:27:25;;;;;;;2.90;1.13;;;;;;;9.14;53.59;97438.66;5107011;28;20044;-70
2024/01/04 04:29:52;;;;;;;1.80;1.20;;;;;;;9.13;53.64;97442.25;5106730;28;20047;-70
2024/01/04 04:32:19;;;;;;;1.70;1.30;;;;;;;9.07;53.91;97423.41;5106653;28;20101;-70
2024/01/04 04:34:45;;;;;;;1.67;1.10;;;;;;;8.91;53.94;97392.91;5106571;28;20039;-70
2024/01/04 04:37:14;;;;;;;2.10;1.20;;;;;;;9.05;53.70;97423.50;5088246;28;20247;-70
2024/01/04 04:39:41;;;;;;;1.98;1.20;;;;;;;9.08;53.68;97401.28;5106456;28;20171;-71
2024/01/04 04:42:09;;;;;;;1.42;1.10;;;;;;;9.07;53.45;97403.09;5106503;28;20284;-70
2024/01/04 04:44:36;;;;;;;1.65;1.17;;;;;;;9.04;53.62;97405.97;5106465;28;20089;-70
2024/01/04 04:47:03;;;;;;;1.65;1.20;;;;;;;9.01;53.57;97398.31;5106667;28;20044;-70
2024/01/04 04:49:29;;;;;;;1.80;1.17;;;;;;;9.04;53.54;97394.56;5106077;28;20199;-71
2024/01/04 04:51:56;;;;;;;1.67;1.20;;;;;;;9.02;53.18;97391.22;5106054;28;20312;-70
2024/01/04 04:54:24;;;;;;;1.65;1.17;;;;;;;8.80;53.48;97370.94;5106199;28;20289;-70
2024/01/04 04:56:51;;;;;;;1.90;1.20;;;;;;;9.01;52.97;97390.38;5106545;28;20078;-70
2024/01/04 04:59:19;;;;;;;1.35;1.10;;;;;;;8.99;52.91;97379.94;5106218;28;20055;-71
2024/01/04 05:01:45;;;;;;;1.45;1.17;;;;;;;8.98;52.92;97382.69;5106172;28;20235;-70
2024/01/04 05:04:12;;;;;;;2.33;1.30;;;;;;;8.99;52.95;97387.00;5106737;28;20043;-70
2024/01/04 05:06:39;;;;;;;1.10;1.00;;;;;;;8.99;52.95;97392.31;5105818;28;20044;-70
2024/01/04 05:09:07;;;;;;;1.50;1.30;;;;;;;9.00;52.68;97401.91;5106014;28;20044;-70
2024/01/04 05:11:34;;;;;;;1.90;1.20;;;;;;;8.98;52.72;97402.03;5088053;28;20067;-71
2024/01/04 05:14:02;;;;;;;1.75;1.27;;;;;;;8.93;52.77;97376.94;5106007;28;20052;-70
2024/01/04 05:16:30;;;;;;;1.60;1.20;;;;;;;8.99;52.69;97379.09;5105661;28;20051;-70
2024/01/04 05:18:56;;;;;;;2.45;1.55;;;;;;;9.00;52.62;97380.78;5105967;28;20110;-70
2024/01/04 05:21:23;;;;;;;2.33;1.20;;;;;;;8.96;52.59;97401.31;5105668;28;20305;-70
2024/01/04 05:23:50;;;;;;;1.50;1.20;;;;;;;8.89;52.88;97381.63;5105651;28;20070;-71
2024/01/04 05:26:21;;;;;;;2.60;1.50;;;;;;;8.93;52.79;97395.44;5105917;28;20040;-70
2024/01/04 05:28:48;;;;;;;1.77;1.15;;;;;;;8.91;52.71;97397.34;5105587;28;20054;-70
2024/01/04 05:31:17;;;;;;;2.00;1.40;;;;;;;8.90;52.78;97406.25;5106036;28;20051;-70
2024/01/04 05:33:46;;;;;;;3.15;1.50;;;;;;;8.66;52.38;97380.81;5109845;28;20044;-70
2024/01/04 05:36:12;;;;;;;1.50;1.17;;;;;;;8.96;52.24;97403.94;5109940;28;20044;-70
2024/01/04 05:38:39;;;;;;;2.85;1.27;;;;;;;8.96;52.37;97405.75;5109974;28;20284;-70
2024/01/04 05:41:07;;;;;;;3.92;1.20;;;;;;;8.97;52.24;97405.63;5109940;28;20044;-70
2024/01/04 05:43:34;;;;;;;1.92;1.35;;;;;;;8.99;52.17;97397.59;5109621;28;20094;-70
2024/01/04 05:46:02;;;;;;;2.75;1.27;;;;;;;8.98;52.01;97411.75;5109733;28;20166;-71
2024/01/04 05:48:28;;;;;;;2.55;1.10;;;;;;;8.83;51.81;97376.00;5110053;28;20044;-70
2024/01/04 05:50:56;;;;;;;2.20;1.30;;;;;;;8.98;51.69;97380.88;5109371;28;20125;-70
2024/01/04 05:53:23;;;;;;;1.92;1.27;;;;;;;9.02;51.64;97386.78;5109749;28;20051;-70
2024/01/04 05:55:50;;;;;;;2.47;1.30;;;;;;;9.00;51.55;97396.63;5109616;28;20039;-70
2024/01/04 05:58:16;;;;;;;1.60;1.20;;;;;;;9.00;51.65;97401.91;5110445;28;20044;-70
2024/01/04 06:00:43;;;;;;;2.08;1.30;;;;;;;9.01;51.21;97419.44;5109866;28;20109;-70
2024/01/04 06:03:09;;;;;;;1.85;1.30;;;;;;;8.81;51.57;97354.13;5109239;28;20166;-70
2024/01/04 06:05:36;;;;;;;2.05;1.30;;;;;;;9.03;51.08;97388.44;5091908;28;20056;-71
2024/01/04 06:08:05;;;;;;;2.30;1.52;;;;;;;9.04;51.04;97398.06;5109196;28;20051;-70
2024/01/04 06:10:31;;;;;;;1.83;1.20;;;;;;;8.83;51.12;97362.78;5109443;28;20044;-70
2024/01/04 06:12:58;;;;;;;2.55;1.30;;;;;;;9.05;51.09;97460.50;5091573;28;20284;-69
2024/01/04 06:15:25;;;;;;;2.80;1.25;;;;;;;9.03;51.00;97396.38;5109015;28;20052;-69
2024/01/04 06:17:51;;;;;;;2.40;1.80;;;;;;;9.06;50.93;97419.91;5091238;28;20036;-70
2024/01/04 06:20:18;;;;;;;2.70;1.40;;;;;;;9.07;51.08;97428.69;5109152;28;20051;-71
2024/01/04 06:22:44;;;;;;;1.50;1.10;;;;;;;9.08;51.01;97435.66;5108764;28;20089;-70
2024/01/04 06:25:12;;;;;;;1.67;1.30;;;;;;;9.08;51.16;97425.06;5109048;28;20059;-70
2024/01/04 06:27:39;;;;;;;2.10;1.48;;;;;;;9.04;51.38;97458.81;5109038;28;20043;-70
2024/01/04 06:30:07;;;;;;;3.25;1.35;;;;;;;9.03;51.53;97465.06;5109244;28;20239;-70
2024/01/04 06:32:34;;;;;;;2.50;1.30;;;;;;;9.03;51.82;97445.75;5109129;28;20090;-70
2024/01/04 06:35:00;;;;;;;2.47;1.27;;;;;;;9.02;52.01;97450.19;5090671;28;20036;-70
2024/01/04 06:37:28;;;;;;;1.92;1.30;;;;;;;9.02;52.03;97460.75;5109160;28;20292;-71
2024/01/04 06:39:55;;;;;;;1.75;1.20;;;;;;;8.97;52.38;97442.63;5108817;28;20208;-70
2024/01/04 06:42:23;;;;;;;2.17;1.40;;;;;;;8.98;52.42;97417.88;5108954;28;20051;-70
2024/01/04 06:44:49;;;;;;;3.70;1.58;;;;;;;8.95;52.57;97423.41;5108408;28;20051;-70
2024/01/04 06:47:16;;;;;;;2.25;1.30;;;;;;;8.97;52.38;97450.53;5108662;28;20044;-71
2024/01/04 06:49:43;;;;;;;3.50;1.20;;;;;;;8.92;52.55;97426.28;5108226;28;20060;-70
2024/01/04 06:52:10;;;;;;;1.52;1.10;;;;;;;8.33;52.63;97326.19;5108540;28;20082;-70
2024/01/04 06:54:36;;;;;;;1.98;1.27;;;;;;;5.14;52.41;96803.84;5108547;28;20047;-70
2024/01/04 06:57:06;;;;;;;1.75;1.20;;;;;;;8.94;52.45;97429.66;5108486;28;20256;-70
2024/01/04 06:59:34;;;;;;;2.15;1.40;;;;;;;8.77;52.47;97410.81;5108148;28;20327;-70
2024/01/04 07:02:00;;;;;;;2.38;1.50;;;;;;;8.93;52.58;97417.41;5108656;28;20296;-70
2024/01/04 07:04:27;;;;;;;2.17;1.48;;;;;;;8.95;52.76;97433.13;5108395;28;20104;-70
2024/01/04 07:06:53;;;;;;;1.30;1.10;;;;;;;8.94;52.75;97436.72;5108337;28;20188;-70
2024/01/04 07:09:20;;;;;;;2.50;1.25;;;;;;;8.93;52.99;97429.78;5108297;28;20044;-70
2024/01/04 07:11:47;;;;;;;2.22;1.20;;;;;;;8.93;52.72;97435.91;5108172;28;20204;-70
2024/01/04 07:14:13;;;;;;;2.00;1.40;;;;;;;8.90;52.93;97462.56;5108182;28;20073;-70
2024/01/04 07:16:44;;;;;;;2.78;1.20;;;;;;;8.89;52.83;97487.28;5108300;28;20048;-70
2024/01/04 07:19:11;;;;;;;2.50;1.30;;;;;;;8.93;52.77;97478.16;5107998;28;20036;-70
2024/01/04 07:21:38;;;;;;;2.20;1.20;;;;;;;8.96;52.93;97483.22;5090827;28;20074;-70
2024/01/04 07:24:05;;;;;;;1.75;1.30;;;;;;;8.94;52.76;97479.84;5107658;28;20040;-70
2024/01/04 07:26:32;;;;;;;1.45;1.10;;;;;;;8.93;52.81;97469.41;5107488;28;20219;-70
2024/01/04 07:28:58;;;;;;;3.03;1.67;;;;;;;8.92;52.77;97458.00;5107532;28;20369;-70
2024/01/04 07:31:25;;;;;;;1.50;1.13;;;;;;;8.95;52.69;97470.97;5107796;28;20054;-70
2024/01/04 07:33:53;;;;;;;1.40;1.13;;;;;;;8.96;52.71;97459.44;5107773;28;20365;-70
2024/01/04 07:36:20;;;;;;;1.98;1.17;;;;;;;8.97;52.74;97458.47;5107412;28;20044;-70
2024/01/04 07:38:46;;;;;;;1.65;1.20;;;;;;;8.99;52.80;97469.75;5107373;28;20207;-70
2024/01/04 07:41:13;;;;;;;3.00;1.65;;;;;;;8.85;52.66;97456.78;5107486;28;20039;-70
2024/01/04 07:43:40;;;;;;;1.95;1.30;;;;;;;9.03;52.51;97464.22;5107272;28;20040;-69
2024/01/04 07:46:06;;;;;;;1.67;1.10;;;;;;;9.02;52.74;97479.25;5107367;28;20115;-70
2024/01/04 07:48:33;;;;;;;2.78;1.65;;;;;;;9.08;52.65;97467.34;5107362;28;20043;-70
2024/01/04 07:51:01;;;;;;;2.88;1.38;;;;;;;9.06;52.84;97462.19;5106942;28;20064;-70
2024/01/04 07:53:28;;;;;;;2.55;1.30;;;;;;;9.11;52.75;97462.66;5107657;28;20311;-70
2024/01/04 07:55:54;;;;;;;1.67;1.20;;;;;;;9.12;52.81;97459.06;5106729;28;20101;-70
2024/01/04 07:58:21;;;;;;;2.75;1.20;;;;;;;9.15;52.85;97472.03;5106965;28;20047;-70
2024/01/04 08:00:48;;;;;;;2.63;1.40;;;;;;;8.82;52.75;97406.00;5107247;28;20089;-70
2024/01/04 08:03:14;;;;;;;2.97;1.40;;;;;;;9.24;52.62;97508.34;5106942;28;20043;-69
2024/01/04 08:05:41;;;;;;;2.30;1.35;;;;;;;9.27;52.51;97471.09;5106911;28;20044;-70
2024/01/04 08:08:09;;;;;;;2.15;1.30;;;;;;;9.29;52.42;97448.03;5107339;28;20040;-70
2024/01/04 08:10:36;;;;;;;2.63;1.30;;;;;;;9.30;52.38;97455.00;5106689;28;20044;-70
2024/01/04 08:13:02;;;;;;;2.08;1.20;;;;;;;9.34;52.17;97466.16;5107261;28;20056;-69
2024/01/04 08:15:33;;;;;;;4.25;1.30;;;;;;;9.32;52.33;97476.84;5106904;28;20051;-70
2024/01/04 08:18:00;;;;;;;1.63;1.20;;;;;;;9.39;52.14;97457.84;5107216;28;20079;-70
2024/01/04 08:20:27;;;;;;;2.05;1.30;;;;;;;9.52;51.94;97453.28;5106655;28;20122;-69
2024/01/04 08:22:55;;;;;;;2.10;1.40;;;;;;;9.45;51.63;97438.88;5107112;28;20093;-69
2024/01/04 08:25:23;;;;;;;2.13;1.20;;;;;;;9.66;51.60;97468.88;5106818;28;20039;-70
2024/01/04 08:27:49;;;;;;;3.70;1.30;;;;;;;9.71;51.43;97463.22;5106525;28;20097;-69
2024/01/04 08:30:16;;;;;;;3.67;1.30;;;;;;;9.75;51.12;97462.84;5106466;28;20044;-70
2024/01/04 08:32:43;;;;;;;3.03;1.42;;;;;;;9.77;51.12;97460.06;5106646;28;20040;-70
2024/01/04 08:35:09;;;;;;;1.85;1.20;;;;;;;9.84;50.90;97495.66;5106601;28;20051;-70
2024/01/04 08:37:36;;;;;;;2.15;1.55;;;;;;;9.89;50.64;97489.00;5106312;28;20090;-70
2024/01/04 08:40:04;;;;;;;2.38;1.45;;;;;;;9.68;50.65;97432.56;5088496;28;20040;-70
2024/01/04 08:42:32;;;;;;;2.45;1.38;;;;;;;9.95;50.41;97498.25;5106320;28;20064;-70
2024/01/04 08:44:59;;;;;;;1.80;1.20;;;;;;;10.01;50.43;97499.56;5106483;28;20318;-70
2024/01/04 08:47:26;;;;;;;2.40;1.30;;;;;;;10.06;50.57;97500.88;5088285;28;20111;-70
2024/01/04 08:49:53;;;;;;;1.52;1.27;;;;;;;10.17;50.73;97526.44;5106187;28;20048;-70
2024/01/04 08:52:19;;;;;;;3.08;1.20;;;;;;;10.19;50.60;97551.81;5105882;28;20040;-70
2024/01/04 08:54:46;;;;;;;1.80;1.15;;;;;;;10.24;50.60;97548.81;5106442;28;20289;-70
2024/01/04 08:57:14;;;;;;;1.50;1.00;;;;;;;10.25;50.86;97519.56;5088638;28;20036;-70
2024/01/04 08:59:43;;;;;;;1.63;1.10;;;;;;;10.26;51.02;97518.59;5106469;28;20051;-70
2024/01/04 09:02:09;;;;;;;1.80;1.40;;;;;;;10.33;51.03;97516.28;5106089;28;20052;-70
2024/01/04 09:04:36;;;;;;;1.85;1.20;;;;;;;10.41;51.18;97542.13;5106052;28;20048;-70
2024/01/04 09:07:03;;;;;;;3.50;1.10;;;;;;;10.41;51.07;97512.97;5087535;28;20040;-70
2024/01/04 09:09:30;;;;;;;1.63;1.10;;;;;;;9.85;51.24;97460.28;5105626;28;20043;-70
2024/01/04 09:11:57;;;;;;;1.45;1.10;;;;;;;10.40;51.24;97545.72;5105837;28;20047;-70
2024/01/04 09:14:23;;;;;;;1.83;1.30;;;;;;;10.37;51.18;97541.53;5106044;28;20300;-70
2024/01/04 09:16:51;;;;;;;2.20;1.30;;;;;;;10.44;51.26;97534.75;5106319;28;20039;-70
2024/01/04 09:19:19;;;;;;;2.50;1.42;;;;;;;10.53;50.88;97562.28;5105745;28;20246;-70
2024/01/04 09:21:49;;;;;;;1.48;1.10;;;;;;;10.53;51.00;97563.13;5106028;28;20051;-70
2024/01/04 09:24:17;;;;;;;2.72;1.20;;;;;;;10.45;50.85;97573.50;5105775;28;20090;-70
2024/01/04 09:26:45;;;;;;;1.80;1.20;;;;;;;9.97;51.04;97495.47;5105738;28;20050;-70
2024/01/04 09:29:13;;;;;;;2.28;1.13;;;;;;;9.92;51.08;97496.69;5105520;28;20101;-70
2024/01/04 09:31:40;;;;;;;3.38;1.10;;;;;;;10.38;50.89;97574.97;5087735;28;20040;-70
2024/01/04 09:34:09;;;;;;;2.25;1.20;;;;;;;10.41;50.73;97558.84;5105455;28;20346;-70
2024/01/04 09:36:35;;;;;;;2.40;1.20;;;;;;;10.41;51.12;97540.31;5105495;28;20048;-70
2024/01/04 09:39:03;;;;;;;1.60;1.08;;;;;;;10.34;51.29;97585.94;5105685;28;20101;-70
2024/01/04 09:41:31;;;;;;;1.10;1.00;;;;;;;10.33;51.68;97557.78;5106268;28;20040;-69
2024/01/04 09:44:03;;;;;;;1.38;1.15;;;;;;;10.31;51.41;97554.44;5105671;28;20052;-70
2024/01/04 09:46:34;;;;;;;1.20;1.00;;;;;;;10.30;51.44;97556.25;5105996;28;20232;-70
2024/01/04 09:49:01;;;;;;;1.23;1.10;;;;;;;10.04;52.08;97568.97;5105364;28;20051;-70
2024/01/04 09:51:33;;;;;;;1.58;1.10;;;;;;;9.47;52.19;97458.94;5105335;28;20244;-70
2024/01/04 09:54:01;;;;;;;2.58;1.20;;;;;;;10.17;52.36;97564.34;5105662;28;20040;-70
2024/01/04 09:56:29;;;;;;;1.83;1.30;;;;;;;10.24;52.65;97578.75;5105145;28;20055;-70
2024/01/04 09:58:56;;;;;;;1.95;1.20;;;;;;;10.06;52.73;97547.66;5087856;28;20040;-70
2024/01/04 10:01:26;;;;;;;2.15;1.15;;;;;;;10.10;53.16;97609.97;5105233;28;20212;-69
2024/01/04 10:03:55;;;;;;;2.20;1.13;;;;;;;9.95;53.42;97583.78;5105695;28;20051;-70
2024/01/04 10:06:25;;;;;;;1.20;1.00;;;;;;;9.76;53.63;97527.19;5087972;28;20334;-70
2024/01/04 10:09:00;;;;;;;1.52;1.08;;;;;;;9.90;53.84;97551.56;5105723;28;20040;-70
2024/01/04 10:11:37;;;;;;;1.67;1.17;;;;;;;9.93;54.01;97563.69;5105199;28;20065;-70
2024/01/04 10:14:05;;;;;;;1.58;1.15;;;;;;;10.07;54.11;97544.91;5105245;28;20040;-70
2024/01/04 10:16:33;;;;;;;2.15;1.38;;;;;;;10.16;53.57;97615.63;5105205;28;20296;-70
2024/01/04 10:19:00;;;;;;;2.33;1.30;;;;;;;10.04;53.50;97586.66;5108350;28;20044;-70
2024/01/04 10:21:33;;;;;;;2.55;1.10;;;;;;;10.27;53.35;97591.75;5109340;28;20032;-70
2024/01/04 10:24:03;;;;;;;2.65;1.45;;;;;;;10.26;53.11;97595.38;5108714;28;20048;-69
2024/01/04 10:26:30;;;;;;;1.83;1.10;;;;;;;10.43;52.63;97624.94;5108951;28;20050;-70
2024/01/04 10:28:59;;;;;;;2.58;1.10;;;;;;;10.24;52.84;97570.81;5108700;28;20055;-70
2024/01/04 10:31:26;;;;;;;1.48;1.08;;;;;;;10.34;52.35;97557.66;5108816;28;20067;-70
2024/01/04 10:33:57;;;;;;;3.05;1.20;;;;;;;10.52;52.13;97576.50;5108663;28;20036;-69
2024/01/04 10:36:25;;;;;;;1.27;1.05;;;;;;;10.67;52.05;97539.94;5108802;28;20067;-69
2024/01/04 10:38:51;;;;;;;1.65;1.10;;;;;;;10.63;51.68;97544.66;5108782;28;20052;-70
2024/01/04 10:41:20;;;;;;;3.67;1.20;;;;;;;10.76;51.23;97621.28;5108761;28;20044;-70
2024/01/04 10:43:46;;;;;;;4.28;1.15;;;;;;;10.53;51.38;97498.72;5108765;28;20040;-70
2024/01/04 10:46:13;;;;;;;1.70;1.10;;;;;;;10.79;51.53;97563.63;5108904;28;20048;-70
2024/01/04 10:48:39;;;;;;;1.90;1.30;;;;;;;10.49;51.10;97540.50;5108868;28;20040;-70
2024/01/04 10:51:09;;;;;;;1.30;1.02;;;;;;;10.97;51.17;97555.09;5086856;28;20354;-70
2024/01/04 10:53:37;;;;;;;1.90;1.27;;;;;;;10.91;51.15;97605.00;5087932;28;20350;-70
2024/01/04 10:56:04;;;;;;;2.47;1.10;;;;;;;10.93;51.31;97556.31;5088004;28;20055;-70
2024/01/04 10:58:35;;;;;;;2.58;1.20;;;;;;;10.96;51.09;97570.16;5088362;28;20051;-70
2024/01/04 11:01:03;;;;;;;2.55;1.20;;;;;;;10.92;51.40;97558.13;5088305;28;20337;-70
2024/01/04 11:03:31;;;;;;;2.03;1.20;;;;;;;10.95;51.20;97594.13;5088474;28;20166;-69
2024/01/04 11:05:59;;;;;;;1.83;1.23;;;;;;;10.97;51.23;97563.88;5087784;28;20040;-71
2024/01/04 11:08:26;;;;;;;2.63;1.20;;;;;;;11.05;50.83;97548.16;5088234;28;20067;-70
2024/01/04 11:10:54;;;;;;;2.53;1.08;;;;;;;11.03;51.22;97607.56;5088096;28;20071;-71
2024/01/04 11:13:20;;;;;;;1.95;1.15;;;;;;;10.99;51.12;97564.56;5087835;28;20040;-71
2024/01/04 11:15:52;;;;;;;2.30;1.60;;;;;;;11.09;51.25;97528.34;5088176;28;20048;-71
2024/01/04 11:18:47;;;;;;;5.68;1.55;;;;;;;11.08;51.28;97552.34;5088356;28;20189;-70
2024/01/04 11:21:33;;;;;;;2.95;1.30;;;;;;;11.11;51.22;97513.16;5087853;28;20243;-71
2024/01/04 11:24:05;;;;;;;2.90;1.30;;;;;;;11.20;50.96;97580.47;5087513;28;20040;-70
2024/01/04 11:26:42;;;;;;;2.28;1.20;;;;;;;11.09;51.24;97535.47;5086659;28;20342;-71
2024/01/04 11:29:10;;;;;;;2.22;1.40;;;;;;;11.17;50.86;97570.97;5086387;28;20154;-71
2024/01/04 11:31:43;;;;;;;2.15;1.35;;;;;;;11.13;51.09;97520.97;5087574;28;20112;-70
2024/01/04 11:34:11;;;;;;;4.82;1.63;;;;;;;11.02;51.24;97532.50;5087154;28;20044;-70
2024/01/04 11:36:39;;;;;;;2.10;1.10;;;;;;;11.06;51.19;97486.22;5087044;28;20264;-70
2024/01/04 11:39:05;;;;;;;1.90;1.20;;;;;;;11.09;51.30;97507.16;5087513;28;20044;-70